Terminal Aerodrome Forecast
Issued by NWS Charleston, WV

Current Version | Previous Version | Graphics & Text | Print | Product List | Glossary On
Versions: 1 2 3 4 5 6 7 8 9 10 11 12 13 14 15 16 17 18 19 20 21 22 23 24 25 26
650
FTUS41 KRLX 241742
TAFEKN
TAF
KEKN 241742Z 2418/2518 13013G23KT P6SM OVC028
     FM250000 14011G17KT 4SM SHRA OVC027
     FM250300 13009KT 6SM SHRA OVC016
     FM251000 18004KT 6SM SHRA BKN008
     FM251400 23005KT P6SM BKN012
     FM251600 24006KT P6SM BKN035=

USA.gov is the U.S. government's official web portal to all federal, state and local government web resources and services.